Terminal Aerodrome Forecast
Issued by NWS

Home | Current Version | Previous Version | Text Only | Print | Product List | Glossary On
Versions: 1 2 3 4 5 6 7 8 9 10 11 12 13 14 15 16 17 18 19 20 21 22 23 24 25 26 27 28 29 30 31 32 33 34
431
FTUS44 KFWD 160142 AAA
TAFFTW
TAF AMD
KFTW 160142Z 1602/1624 13015KT 2SM BR VCTS SCT008 BKN015CB
      TEMPO 1602/1604 1SM TSRA BKN008CB
     FM160600 33015KT P6SM VCSH BKN025
     FM160700 22010KT P6SM SCT015 BKN045
     FM162300 30008KT P6SM SCT250=

USA.gov is the U.S. government's official web portal to all federal, state and local government web resources and services.